< < Back
Terminal Aerodrome Forecast


Current Version              Previous Versions:   1  2  3  4  5  6  7  8  9  

Terminal Aerodrome Forecast

677
FTUS44 KBMX 250520
TAFBHM
TAF
KBHM 250520Z 2506/2606 VRB03KT P6SM SCT250
     FM251700 05006KT P6SM SCT250=

Latest METAR

439
SAUS70 KWBC 252300 RRC
MTRBHM
METAR KBHM 252253Z 05005KT 10SM TS SCT110CB 34/21 A3007 RMK AO2 TSB49
SLP173 OCNL LTGIC NE TS NE MOV SW T03390206


USA.gov is the U.S. government's official web portal to all federal, state and local government web resources and services.